Uniontown, PA (15401)

12:37 PM EST on December 07, 2016 (GMT -0500)
Nick's Weather | | Change Station

Elev 1060 ft 39.90 °N, 79.74 °W | Updated 9 seconds ago

Partly Cloudy
Partly Cloudy
41.3 °F
Feels Like 41 °F
N
3.0
Wind Variable Wind from West
Gusts 9.0 mph

Today
High -- | Low -- °F
--% Chance of Precip.
Yesterday
High -- | Low -- °F
Precip. -- in
Pressure 30.10 in
Visibility 10.0 miles
Clouds Few 2200 ft
Windchill 41 °F
Dew Point 32 °F
Humidity 69%
Rainfall 0.00 in
Snow Depth Not available.
7:27 AM 4:53 PM
First Quarter, 54% visible
METAR KMGW 071653Z VRB03KT 10SM FEW022 06/M01 A3008 RMK AO2 SLP192 T00561006
Pressure 30.10 in
Visibility 10.0 miles
Clouds Few 2200 ft
Windchill 41 °F
Dew Point 32 °F
Humidity 69%
Rainfall 0.00 in
Snow Depth Not available.
7:27 AM 4:53 PM
First Quarter, 54% visible
METAR KMGW 071653Z VRB03KT 10SM FEW022 06/M01 A3008 RMK AO2 SLP192 T00561006

10-Day Weather Forecast

Almanac

Astronomy

Dec. 07, 2016 Rise Set
Actual Time
Civil Twilight
Nautical Twilight
Astronomical Twilight
Moon
Length of Visible Light
Length of Day
Tomorrow will be .
, % of the Moon is Illuminated

Today's Extremes

State Highs State Lows

Community

WunderPhotos

Upload Photos

1,956,155 photos uploaded!

WunderBlog® & News

Nearby

Air Quality

  Air Quality AQ Index Pollutant
Not available.

Snow Depth

Station Depth Elevation

Earthquake Activity

City Distance Mag. Time & Date
Minimum magnitude displayed is 2.5.

Coastal Water Temperatures

Place Temperature

Stations

Nearby Weather Stations

Station Location Temp. Windchill Dew Point Humidity Wind Precip. Elev Updated Type
                   

Watches & Warnings

There are currently no watches in effect.